»·PEaware :: N915TB KSBD-KIFP

N915TB :: KSBD-KIFP

FLIGHT INFORMATION

Flight Status: Arrived
Operator: Privately registered:
United States
More flights under this callsign
Pilot: Jake M. (20491)
Aircraft: SOCATA TBM-900
(TBM9)
More flights by this aircraft type
Origin: KSBD San Bernardino Intl
United States
Destination: KIFP Laughlin/Bullhead Intl
United States
More flights between these airports :: More routes between these airports
Route: PDZ V21 HEC V21 GFS
File this flight plan on PilotEdge
Remarks:
Altitude:
(Current/Filed)
17,000ft
Speed:
(Current/Filed)
280kts
Departed: 13-Aug-19 03:02 PM
Arrived: 13-Aug-19 03:55 PM
Distance/Time
Traveled:
147nm/0:52
Distance/Time
To Go:
Arrived

Flight Plot

Page will automatically refresh every two minutes.

Flight plan parsing failed; only flown route is shown


Map Options




Map Legend


Flown Route
Filed Route
Departure Airport
Arrival Airport
Navaid (VOR, NDB)
Fix

Horizontal Profiles

Position Reports

Time Latitude Longitude Heading Altitude Ground
Speed
13-Aug-19 14:53 34.100700 -117.225727 70 1141ft 0kts
13-Aug-19 14:54 34.100700 -117.225727 70 1141ft 0kts
13-Aug-19 14:55 34.100700 -117.225727 70 1141ft 0kts
13-Aug-19 14:56 34.100700 -117.225727 70 1141ft 0kts
13-Aug-19 14:57 34.100700 -117.225725 71 1141ft 0kts
13-Aug-19 14:58 34.100412 -117.224343 94 1144ft 12kts
13-Aug-19 14:59 34.100824 -117.219771 161 1156ft 0kts
13-Aug-19 15:00 34.100824 -117.219771 161 1156ft 0kts
13-Aug-19 15:01 34.099006 -117.222232 250 1149ft 58kts
13-Aug-19 15:02 34.085381 -117.257744 226 2445ft 141kts
13-Aug-19 15:03 34.059499 -117.294282 231 4744ft 141kts
13-Aug-19 15:04 34.035806 -117.332555 231 7001ft 146kts
13-Aug-19 15:05 34.045333 -117.367355 11 9421ft 158kts
13-Aug-19 15:06 34.081841 -117.337544 45 11736ft 164kts
13-Aug-19 15:07 34.113853 -117.297253 47 14023ft 170kts
13-Aug-19 15:08 34.148887 -117.254402 46 15861ft 195kts
13-Aug-19 15:09 34.189630 -117.204579 46 17035ft 238kts
13-Aug-19 15:10 34.241701 -117.141200 45 17011ft 283kts
13-Aug-19 15:11 34.298766 -117.072127 45 17002ft 295kts
13-Aug-19 15:12 34.357407 -117.001000 45 17000ft 298kts
13-Aug-19 15:13 34.416098 -116.929657 45 17000ft 299kts
13-Aug-19 15:14 34.475261 -116.857589 45 17000ft 300kts
13-Aug-19 15:15 34.534101 -116.785760 45 17000ft 300kts
13-Aug-19 15:16 34.592923 -116.713798 45 17001ft 301kts
13-Aug-19 15:17 34.651926 -116.641464 45 17001ft 302kts
13-Aug-19 15:18 34.711294 -116.568520 45 17001ft 303kts
13-Aug-19 15:19 34.770860 -116.495175 45 17011ft 304kts
13-Aug-19 15:20 34.811571 -116.408671 73 17121ft 298kts
13-Aug-19 15:21 34.837247 -116.311289 73 17127ft 300kts
13-Aug-19 15:22 34.862890 -116.214186 73 17133ft 301kts
13-Aug-19 15:23 34.888413 -116.117184 73 17131ft 301kts
13-Aug-19 15:24 34.913970 -116.019712 73 17110ft 301kts
13-Aug-19 15:25 34.939680 -115.921275 74 17087ft 303kts
13-Aug-19 15:26 34.965242 -115.823043 74 17084ft 303kts
13-Aug-19 15:27 34.990769 -115.724588 74 17084ft 303kts
13-Aug-19 15:28 35.016247 -115.625945 74 17084ft 303kts
13-Aug-19 15:29 35.041529 -115.527625 73 16440ft 300kts
13-Aug-19 15:30 35.066042 -115.432063 73 14946ft 293kts
13-Aug-19 15:31 35.090221 -115.337420 74 13453ft 289kts
13-Aug-19 15:32 35.113888 -115.244460 74 12051ft 274kts
13-Aug-19 15:33 35.141526 -115.160760 51 10929ft 259kts
13-Aug-19 15:34 35.187151 -115.093531 51 10359ft 255kts
13-Aug-19 15:35 35.231982 -115.027009 51 9798ft 251kts
13-Aug-19 15:36 35.275752 -114.961943 51 9529ft 244kts
13-Aug-19 15:37 35.319450 -114.896861 51 9527ft 247kts
13-Aug-19 15:38 35.363262 -114.831491 51 9527ft 248kts
13-Aug-19 15:39 35.406946 -114.766195 51 9541ft 238kts
13-Aug-19 15:40 35.449381 -114.702631 51 8686ft 249kts
13-Aug-19 15:41 35.500744 -114.652800 345 8083ft 238kts
13-Aug-19 15:42 35.561043 -114.686006 333 7365ft 238kts
13-Aug-19 15:43 35.607494 -114.733910 260 6700ft 224kts
13-Aug-19 15:44 35.561466 -114.737367 146 6713ft 204kts
13-Aug-19 15:45 35.514690 -114.697933 145 6710ft 201kts
13-Aug-19 15:46 35.468271 -114.660106 157 6685ft 197kts
13-Aug-19 15:47 35.418643 -114.629310 147 5722ft 197kts
13-Aug-19 15:48 35.370171 -114.600214 155 4826ft 189kts
13-Aug-19 15:49 35.323647 -114.574964 161 3843ft 178kts
13-Aug-19 15:50 35.278369 -114.568712 176 2893ft 146kts
13-Aug-19 15:51 35.242274 -114.566063 177 2228ft 113kts
13-Aug-19 15:52 35.211156 -114.563756 176 1641ft 110kts
13-Aug-19 15:53 35.180641 -114.561445 177 1012ft 101kts
13-Aug-19 15:54 35.160379 -114.559786 174 704ft 37kts
13-Aug-19 15:55 35.156240 -114.558070 4 704ft 11kts
13-Aug-19 15:56 35.159554 -114.556917 71 704ft 13kts
13-Aug-19 15:57 35.161175 -114.556746 356 704ft 0kts
13-Aug-19 15:58 35.161175 -114.556746 356 704ft 0kts
13-Aug-19 15:59 35.161175 -114.556746 356 704ft 0kts
13-Aug-19 16:00 35.161234 -114.556915 245 704ft 0kts
13-Aug-19 16:02 35.161234 -114.556915 245 704ft 0kts

Navigation Log

Ident Type
Flight plan parsing failed, navigation log unavailable